Time;durP1;ratioP1;P1;durP2;ratioP2;P2;SDS_P1;SDS_P2;PMS_P1;PMS_P2;Temp;Humidity;BMP_temperature;BMP_pressure;BME280_temperature;BME280_humidity;BME280_pressure;Samples;Min_cycle;Max_cycle;Signal;HPM_P1;HPM_P2
2022/09/13 00:02:12;;;;;;;10.00;3.55;;;;;;;;;;5093327;28;20044;-75
2022/09/13 00:05:16;;;;;;;5.45;3.10;;;;;;;;;;5093024;28;20400;-75
2022/09/13 00:08:20;;;;;;;10.75;3.33;;;;;;;;;;5093017;28;20040;-74
2022/09/13 00:11:26;;;;;;;9.48;2.97;;;;;;;;;;5091482;28;20047;-74
2022/09/13 00:14:30;;;;;;;9.73;2.75;;;;;;;;;;5093022;28;20036;-74
2022/09/13 00:17:34;;;;;;;6.40;2.92;;;;;;;;;;5092964;28;20040;-74
2022/09/13 00:20:38;;;;;;;4.13;2.40;;;;;;;;;;5092943;28;20278;-75
2022/09/13 00:23:44;;;;;;;5.78;2.47;;;;;;;;;;5092689;28;20040;-74
2022/09/13 00:26:48;;;;;;;7.95;2.80;;;;;;;;;;5092317;28;20036;-75
2022/09/13 00:29:52;;;;;;;5.45;2.70;;;;;;;;;;5091856;28;20040;-74
2022/09/13 00:32:57;;;;;;;9.25;2.78;;;;;;;;;;5092704;28;20404;-75
2022/09/13 00:36:06;;;;;;;7.07;3.03;;;;;;;;;;5091367;28;20044;-74
2022/09/13 00:39:10;;;;;;;8.85;3.17;;;;;;;;;;5092625;28;20040;-75
2022/09/13 00:42:14;;;;;;;8.05;3.35;;;;;;;;;;5092525;28;20361;-75
2022/09/13 00:45:18;;;;;;;7.65;3.22;;;;;;;;;;5091467;28;20036;-74
2022/09/13 00:48:24;;;;;;;9.35;3.88;;;;;;;;;;5092164;28;20032;-74
2022/09/13 00:51:29;;;;;;;7.72;2.72;;;;;;;;;;5092355;28;20040;-74
2022/09/13 00:54:42;;;;;;;4.88;2.55;;;;;;;;;;5092012;28;20040;-75
2022/09/13 00:57:46;;;;;;;5.15;2.60;;;;;;;;;;5091367;28;20047;-75
2022/09/13 01:00:51;;;;;;;13.23;2.95;;;;;;;;;;5091156;28;20032;-75
2022/09/13 01:03:55;;;;;;;11.00;2.45;;;;;;;;;;5091143;28;20039;-75
2022/09/13 01:07:11;;;;;;;4.68;2.28;;;;;;;;;;5091247;28;20039;-75
2022/09/13 01:10:15;;;;;;;7.50;2.53;;;;;;;;;;5091776;28;20040;-75
2022/09/13 01:13:21;;;;;;;4.57;2.13;;;;;;;;;;5091798;28;20044;-75
2022/09/13 01:16:26;;;;;;;4.65;2.50;;;;;;;;;;5091857;28;20151;-75
2022/09/13 01:19:30;;;;;;;5.78;2.58;;;;;;;;;;5091623;28;20040;-75
2022/09/13 01:22:37;;;;;;;7.97;2.50;;;;;;;;;;5090308;28;20044;-75
2022/09/13 01:26:02;;;;;;;4.07;2.08;;;;;;;;;;5090633;28;20369;-75
2022/09/13 01:29:09;;;;;;;4.60;1.85;;;;;;;;;;5090636;28;20060;-75
2022/09/13 01:32:13;;;;;;;4.50;2.40;;;;;;;;;;5090512;28;20036;-75
2022/09/13 01:35:27;;;;;;;4.70;2.13;;;;;;;;;;5090491;28;20040;-75
2022/09/13 01:38:41;;;;;;;6.03;2.20;;;;;;;;;;5090457;28;20032;-76
2022/09/13 01:42:05;;;;;;;11.23;2.97;;;;;;;;;;5091555;28;20059;-76
2022/09/13 01:45:28;;;;;;;10.50;4.00;;;;;;;;;;5091142;28;20032;-76
2022/09/13 01:48:38;;;;;;;12.82;4.78;;;;;;;;;;5090534;28;20032;-75
2022/09/13 01:51:54;;;;;;;10.90;3.97;;;;;;;;;;5091429;28;20054;-75
2022/09/13 01:55:01;;;;;;;14.13;3.38;;;;;;;;;;5091167;28;20044;-75
2022/09/13 01:58:15;;;;;;;11.98;3.55;;;;;;;;;;5090270;28;20036;-75
2022/09/13 02:01:24;;;;;;;6.15;2.78;;;;;;;;;;5090179;28;20297;-76
2022/09/13 02:04:40;;;;;;;6.35;3.00;;;;;;;;;;5090861;28;20479;-76
2022/09/13 02:07:52;;;;;;;5.03;1.98;;;;;;;;;;5090917;28;20103;-75
2022/09/13 02:11:00;;;;;;;3.95;1.98;;;;;;;;;;5090769;28;20040;-76
2022/09/13 02:14:13;;;;;;;3.92;2.50;;;;;;;;;;5091086;28;20040;-76
2022/09/13 02:17:20;;;;;;;8.65;1.92;;;;;;;;;;5091196;28;20048;-76
2022/09/13 02:20:28;;;;;;;4.15;2.50;;;;;;;;;;5090139;28;20471;-76
2022/09/13 02:23:36;;;;;;;8.50;2.60;;;;;;;;;;5090865;28;20040;-76
2022/09/13 02:26:41;;;;;;;4.60;2.08;;;;;;;;;;5090773;28;20044;-76
2022/09/13 02:29:47;;;;;;;8.85;2.83;;;;;;;;;;5090994;28;20044;-76
2022/09/13 02:32:55;;;;;;;4.75;2.70;;;;;;;;;;5091225;28;20032;-75
2022/09/13 02:36:01;;;;;;;2.70;2.00;;;;;;;;;;5094689;28;20369;-76
2022/09/13 02:39:08;;;;;;;4.85;2.33;;;;;;;;;;5094809;28;20043;-76
2022/09/13 02:42:17;;;;;;;6.97;2.88;;;;;;;;;;5094170;28;20036;-76
2022/09/13 02:45:25;;;;;;;5.93;2.90;;;;;;;;;;5093482;28;20036;-76
2022/09/13 02:48:34;;;;;;;9.90;3.33;;;;;;;;;;5094885;28;20380;-76
2022/09/13 02:51:39;;;;;;;4.88;2.70;;;;;;;;;;5094677;28;20040;-76
2022/09/13 02:54:47;;;;;;;6.47;2.97;;;;;;;;;;5093572;28;20036;-76
2022/09/13 02:57:55;;;;;;;6.22;2.90;;;;;;;;;;5094517;28;20047;-76
2022/09/13 03:00:58;;;;;;;8.60;3.10;;;;;;;;;;5094604;28;20040;-76
2022/09/13 03:04:03;;;;;;;6.68;3.20;;;;;;;;;;5094106;28;20040;-76
2022/09/13 03:07:11;;;;;;;8.18;3.22;;;;;;;;;;5093614;28;20476;-76
2022/09/13 03:10:16;;;;;;;8.15;2.92;;;;;;;;;;5081749;28;20040;-76
2022/09/13 03:13:20;;;;;;;7.68;3.80;;;;;;;;;;5094236;28;20039;-76
2022/09/13 03:16:28;;;;;;;7.13;2.92;;;;;;;;;;5093937;28;20483;-76
2022/09/13 03:19:51;;;;;;;9.82;3.53;;;;;;;;;;5093990;28;20036;-76
2022/09/13 03:22:55;;;;;;;8.55;3.00;;;;;;;;;;5093359;28;20036;-76
2022/09/13 03:26:02;;;;;;;7.93;3.22;;;;;;;;;;5093066;28;20036;-76
2022/09/13 03:29:18;;;;;;;5.97;2.97;;;;;;;;;;5093893;28;20040;-76
2022/09/13 03:32:27;;;;;;;10.40;3.20;;;;;;;;;;5093060;28;20040;-76
2022/09/13 03:35:38;;;;;;;16.88;3.25;;;;;;;;;;5092807;28;20059;-76
2022/09/13 03:38:45;;;;;;;20.15;3.42;;;;;;;;;;5093784;28;20488;-76
2022/09/13 03:41:51;;;;;;;8.18;3.33;;;;;;;;;;5093940;28;20036;-76
2022/09/13 03:44:56;;;;;;;10.30;3.20;;;;;;;;;;5092138;28;20032;-76
2022/09/13 03:48:02;;;;;;;12.20;3.17;;;;;;;;;;5093920;28;20051;-76
2022/09/13 03:51:07;;;;;;;9.40;2.97;;;;;;;;;;5081175;28;20051;-76
2022/09/13 03:54:16;;;;;;;8.60;2.72;;;;;;;;;;5093349;28;20040;-76
2022/09/13 03:57:21;;;;;;;6.00;3.20;;;;;;;;;;5093535;28;20048;-76
2022/09/13 04:00:26;;;;;;;6.70;2.72;;;;;;;;;;5092218;28;20036;-76
2022/09/13 04:03:30;;;;;;;9.48;3.50;;;;;;;;;;5092290;28;20368;-76
2022/09/13 04:06:34;;;;;;;10.55;3.00;;;;;;;;;;5093191;28;20032;-76
2022/09/13 04:09:39;;;;;;;10.45;3.00;;;;;;;;;;5093071;28;20039;-76
2022/09/13 04:12:43;;;;;;;12.40;3.65;;;;;;;;;;5092392;28;20047;-76
2022/09/13 04:15:51;;;;;;;8.77;3.47;;;;;;;;;;5092036;28;20047;-76
2022/09/13 04:18:56;;;;;;;6.93;2.90;;;;;;;;;;5092848;28;20036;-76
2022/09/13 04:22:00;;;;;;;7.43;2.97;;;;;;;;;;5093190;28;20044;-75
2022/09/13 04:25:04;;;;;;;8.13;3.78;;;;;;;;;;5092039;28;20032;-76
2022/09/13 04:28:09;;;;;;;5.03;2.83;;;;;;;;;;5091472;28;20052;-76
2022/09/13 04:31:13;;;;;;;7.75;2.75;;;;;;;;;;5092124;28;20040;-76
2022/09/13 04:34:18;;;;;;;7.15;2.90;;;;;;;;;;5091927;28;20048;-76
2022/09/13 04:37:22;;;;;;;9.30;3.33;;;;;;;;;;5092397;28;20036;-76
2022/09/13 04:40:26;;;;;;;13.27;2.85;;;;;;;;;;5092613;28;20040;-76
2022/09/13 04:43:31;;;;;;;8.18;3.00;;;;;;;;;;5092616;28;20040;-76
2022/09/13 04:46:35;;;;;;;6.40;2.67;;;;;;;;;;5091644;28;20381;-76
2022/09/13 04:49:39;;;;;;;7.45;2.80;;;;;;;;;;5092074;28;20036;-76
2022/09/13 04:52:44;;;;;;;10.00;3.30;;;;;;;;;;5092492;28;20039;-76
2022/09/13 04:55:48;;;;;;;13.52;3.00;;;;;;;;;;5091418;28;20052;-76
2022/09/13 04:58:54;;;;;;;10.57;3.00;;;;;;;;;;5092302;28;20028;-76
2022/09/13 05:01:58;;;;;;;11.75;3.75;;;;;;;;;;5092101;28;20066;-76
2022/09/13 05:05:03;;;;;;;12.02;4.25;;;;;;;;;;5092242;28;20039;-76
2022/09/13 05:08:10;;;;;;;15.27;4.47;;;;;;;;;;5092036;28;20032;-76
2022/09/13 05:11:14;;;;;;;13.88;4.55;;;;;;;;;;5091996;28;20028;-75
2022/09/13 05:14:19;;;;;;;12.50;4.22;;;;;;;;;;5091090;28;20087;-76
2022/09/13 05:17:23;;;;;;;21.73;4.85;;;;;;;;;;5090876;28;20423;-76
2022/09/13 05:20:27;;;;;;;11.02;4.10;;;;;;;;;;5091746;28;20032;-76
2022/09/13 05:23:32;;;;;;;9.90;3.95;;;;;;;;;;5091689;28;20051;-76
2022/09/13 05:26:37;;;;;;;23.98;4.90;;;;;;;;;;5090477;28;20040;-77
2022/09/13 05:29:41;;;;;;;8.85;3.42;;;;;;;;;;5090671;28;20503;-77
2022/09/13 05:36:09;;;;;;;6.68;2.53;;;;;;;;;;5091176;28;20052;-77
2022/09/13 05:39:16;;;;;;;5.15;2.25;;;;;;;;;;5090616;28;20040;-77
2022/09/13 05:42:20;;;;;;;12.25;3.90;;;;;;;;;;5090373;28;20483;-76
2022/09/13 05:45:25;;;;;;;9.48;4.55;;;;;;;;;;5090503;28;20036;-74
2022/09/13 05:48:30;;;;;;;16.70;3.97;;;;;;;;;;5091347;28;20039;-75
2022/09/13 05:51:35;;;;;;;12.82;3.85;;;;;;;;;;5091454;28;20044;-75
2022/09/13 05:54:39;;;;;;;17.17;4.13;;;;;;;;;;5090947;28;20324;-74
2022/09/13 05:57:44;;;;;;;19.13;5.03;;;;;;;;;;5091223;28;20595;-75
2022/09/13 06:00:53;;;;;;;10.13;4.25;;;;;;;;;;5091041;28;20040;-74
2022/09/13 06:03:58;;;;;;;21.13;4.63;;;;;;;;;;5091154;28;20044;-74
2022/09/13 06:07:02;;;;;;;20.45;4.78;;;;;;;;;;5090245;28;20036;-75
2022/09/13 06:10:07;;;;;;;22.20;5.40;;;;;;;;;;5090820;28;20040;-75
2022/09/13 06:13:11;;;;;;;14.27;5.18;;;;;;;;;;5090311;28;20411;-75
2022/09/13 06:16:16;;;;;;;13.70;4.65;;;;;;;;;;5090470;28;20515;-75
2022/09/13 06:19:21;;;;;;;13.52;5.40;;;;;;;;;;5091276;28;20032;-82
2022/09/13 06:22:31;;;;;;;15.82;4.28;;;;;;;;;;5091083;28;20038;-76
2022/09/13 06:25:36;;;;;;;15.10;4.57;;;;;;;;;;5091064;28;20383;-81
2022/09/13 06:28:41;;;;;;;14.48;4.47;;;;;;;;;;5090750;28;20063;-75
2022/09/13 06:31:45;;;;;;;11.50;4.70;;;;;;;;;;5090742;28;20044;-74
2022/09/13 06:34:49;;;;;;;12.18;5.28;;;;;;;;;;5090497;28;20506;-72
2022/09/13 06:37:56;;;;;;;19.50;6.03;;;;;;;;;;5090798;28;20055;-75
2022/09/13 06:41:00;;;;;;;32.35;7.53;;;;;;;;;;5091002;28;20041;-73
2022/09/13 06:44:04;;;;;;;16.60;5.93;;;;;;;;;;5078435;28;20413;-72
2022/09/13 06:47:09;;;;;;;15.30;5.95;;;;;;;;;;5090948;28;20047;-72
2022/09/13 06:50:14;;;;;;;21.15;6.95;;;;;;;;;;5090809;28;20047;-74
2022/09/13 06:53:18;;;;;;;37.70;16.65;;;;;;;;;;5090101;28;20047;-73
2022/09/13 06:56:27;;;;;;;43.75;17.38;;;;;;;;;;5090337;28;20055;-77
2022/09/13 06:59:33;;;;;;;27.75;10.32;;;;;;;;;;5090934;28;20047;-84
2022/09/13 07:02:38;;;;;;;26.88;9.48;;;;;;;;;;5089762;28;20050;-75
2022/09/13 07:05:42;;;;;;;22.35;13.07;;;;;;;;;;5090485;28;20593;-76
2022/09/13 07:08:47;;;;;;;62.25;26.13;;;;;;;;;;5090562;28;20043;-74
2022/09/13 07:11:53;;;;;;;34.65;13.82;;;;;;;;;;5090965;28;20174;-76
2022/09/13 07:14:57;;;;;;;51.97;24.85;;;;;;;;;;5090323;28;20067;-75
2022/09/13 07:18:01;;;;;;;15.35;7.75;;;;;;;;;;5090273;28;20047;-78
2022/09/13 07:21:07;;;;;;;34.53;10.55;;;;;;;;;;5094062;28;20028;-76
2022/09/13 07:24:12;;;;;;;18.52;8.68;;;;;;;;;;5094459;28;20059;-77
2022/09/13 07:27:16;;;;;;;25.02;8.65;;;;;;;;;;5093618;28;20044;-81
2022/09/13 07:30:21;;;;;;;31.23;8.30;;;;;;;;;;5094056;28;20036;-75
2022/09/13 07:33:25;;;;;;;17.40;5.93;;;;;;;;;;5081428;28;20039;-73
2022/09/13 07:36:31;;;;;;;17.25;4.95;;;;;;;;;;5093332;28;20063;-78
2022/09/13 07:39:35;;;;;;;11.05;3.72;;;;;;;;;;5093623;28;20032;-74
2022/09/13 07:42:39;;;;;;;13.60;3.70;;;;;;;;;;5093723;28;20032;-72
2022/09/13 07:45:43;;;;;;;14.10;4.13;;;;;;;;;;5093275;28;20040;-76
2022/09/13 07:48:48;;;;;;;13.02;3.97;;;;;;;;;;5093310;28;20036;-72
2022/09/13 07:51:52;;;;;;;16.75;4.20;;;;;;;;;;5093337;28;20051;-72
2022/09/13 07:54:57;;;;;;;10.65;3.50;;;;;;;;;;5093045;28;20403;-76
2022/09/13 07:58:01;;;;;;;12.90;3.60;;;;;;;;;;5092968;28;20047;-74
2022/09/13 08:01:12;;;;;;;14.80;4.65;;;;;;;;;;5091819;28;20040;-72
2022/09/13 08:04:18;;;;;;;13.38;4.57;;;;;;;;;;5092251;28;20036;-72
2022/09/13 08:07:22;;;;;;;14.07;4.50;;;;;;;;;;5091893;28;20396;-73
2022/09/13 08:10:26;;;;;;;12.05;4.68;;;;;;;;;;5093307;28;20495;-70
2022/09/13 08:13:31;;;;;;;15.85;3.42;;;;;;;;;;5093358;28;20396;-75
2022/09/13 08:16:38;;;;;;;13.82;3.67;;;;;;;;;;5092737;28;20047;-74
2022/09/13 08:19:42;;;;;;;10.93;3.97;;;;;;;;;;5092531;28;20049;-75
2022/09/13 08:22:46;;;;;;;9.70;3.40;;;;;;;;;;5093021;28;20040;-75
2022/09/13 08:25:50;;;;;;;18.40;3.50;;;;;;;;;;5092023;28;20158;-74
2022/09/13 08:28:57;;;;;;;15.95;3.40;;;;;;;;;;5092489;28;20044;-75
2022/09/13 08:32:01;;;;;;;12.45;3.38;;;;;;;;;;5091945;28;20498;-86
2022/09/13 08:35:05;;;;;;;16.98;3.72;;;;;;;;;;5091577;28;20045;-77
2022/09/13 08:38:09;;;;;;;8.30;3.00;;;;;;;;;;5096562;28;20640;-75
2022/09/13 08:41:17;;;;;;;8.57;3.10;;;;;;;;;;5092656;28;20132;-79
2022/09/13 08:44:25;;;;;;;12.55;3.25;;;;;;;;;;5092587;28;20171;-75
2022/09/13 08:47:48;;;;;;;5.18;2.53;;;;;;;;;;5092208;28;20031;-75
2022/09/13 08:50:54;;;;;;;5.10;2.78;;;;;;;;;;5092905;28;20036;-76
2022/09/13 08:53:59;;;;;;;5.45;2.38;;;;;;;;;;5068511;28;20048;-76
2022/09/13 08:57:09;;;;;;;8.57;2.42;;;;;;;;;;5091513;28;20040;-76
2022/09/13 09:00:18;;;;;;;5.82;1.80;;;;;;;;;;5092220;28;20036;-76
2022/09/13 09:03:36;;;;;;;3.90;2.00;;;;;;;;;;5091376;28;20048;-78
2022/09/13 09:06:41;;;;;;;6.88;2.25;;;;;;;;;;5092148;28;20036;-78
2022/09/13 09:09:48;;;;;;;5.03;1.80;;;;;;;;;;5091134;28;20036;-79
2022/09/13 09:12:52;;;;;;;3.65;1.60;;;;;;;;;;5090708;28;20472;-77
2022/09/13 09:16:02;;;;;;;4.47;1.60;;;;;;;;;;5090923;28;20044;-76
2022/09/13 09:19:14;;;;;;;11.02;2.20;;;;;;;;;;5092197;28;20040;-75
2022/09/13 09:22:23;;;;;;;3.53;1.42;;;;;;;;;;5092001;28;20047;-75
2022/09/13 09:25:27;;;;;;;4.43;1.80;;;;;;;;;;5091516;28;20183;-76
2022/09/13 09:28:32;;;;;;;6.25;1.70;;;;;;;;;;5091813;28;20044;-75
2022/09/13 09:31:37;;;;;;;7.78;2.03;;;;;;;;;;5091710;28;20040;-80
2022/09/13 09:34:41;;;;;;;8.63;2.63;;;;;;;;;;5091394;28;20040;-76
2022/09/13 09:37:50;;;;;;;4.97;2.35;;;;;;;;;;5091661;28;20492;-78
2022/09/13 09:40:54;;;;;;;8.30;1.73;;;;;;;;;;5079206;28;20357;-78
2022/09/13 09:44:03;;;;;;;6.38;3.00;;;;;;;;;;5089502;28;20359;-74
2022/09/13 09:47:19;;;;;;;5.10;2.10;;;;;;;;;;5090307;28;20364;-79
2022/09/13 09:50:28;;;;;;;4.88;2.08;;;;;;;;;;5089515;28;20400;-75
2022/09/13 09:53:41;;;;;;;8.55;2.10;;;;;;;;;;5090318;28;20184;-73
2022/09/13 09:56:53;;;;;;;10.07;2.05;;;;;;;;;;5090507;28;20048;-75
2022/09/13 10:00:11;;;;;;;5.80;2.08;;;;;;;;;;5089975;28;20043;-75
2022/09/13 10:03:20;;;;;;;10.32;2.40;;;;;;;;;;5091488;28;20368;-76
2022/09/13 10:06:27;;;;;;;6.70;2.15;;;;;;;;;;5089342;28;20399;-77
2022/09/13 10:09:31;;;;;;;7.55;2.25;;;;;;;;;;5089328;28;20040;-79
2022/09/13 10:12:37;;;;;;;4.88;2.00;;;;;;;;;;5090189;28;20028;-73
2022/09/13 10:15:52;;;;;;;4.05;1.60;;;;;;;;;;5090737;28;20040;-81
2022/09/13 10:19:15;;;;;;;2.92;1.58;;;;;;;;;;5090954;28;20048;-82
2022/09/13 10:22:21;;;;;;;3.67;1.70;;;;;;;;;;5090907;28;20380;-79
2022/09/13 10:25:26;;;;;;;4.00;1.67;;;;;;;;;;5090719;28;20040;-75
2022/09/13 10:28:32;;;;;;;3.88;1.30;;;;;;;;;;5090747;28;20373;-73
2022/09/13 10:31:38;;;;;;;6.47;1.83;;;;;;;;;;5091268;28;20043;-76
2022/09/13 10:34:43;;;;;;;3.85;1.50;;;;;;;;;;5090079;28;20040;-77
2022/09/13 10:37:48;;;;;;;3.03;1.35;;;;;;;;;;5090792;28;20048;-75
2022/09/13 10:40:52;;;;;;;4.80;1.60;;;;;;;;;;5090906;28;20036;-77
2022/09/13 10:43:57;;;;;;;6.68;1.58;;;;;;;;;;5090099;28;20044;-81
2022/09/13 10:47:04;;;;;;;7.68;1.95;;;;;;;;;;5091077;28;20040;-79
2022/09/13 10:50:18;;;;;;;4.38;1.73;;;;;;;;;;5090237;28;20385;-74
2022/09/13 10:53:41;;;;;;;3.95;1.60;;;;;;;;;;5090468;28;20036;-72
2022/09/13 10:56:46;;;;;;;5.55;1.70;;;;;;;;;;5094093;28;20059;-74
2022/09/13 10:59:53;;;;;;;3.30;1.10;;;;;;;;;;5093688;28;20036;-75
2022/09/13 11:03:13;;;;;;;1.58;1.00;;;;;;;;;;5094635;28;20040;-74
2022/09/13 11:06:20;;;;;;;8.68;1.48;;;;;;;;;;5093707;28;20036;-74
2022/09/13 11:09:35;;;;;;;3.75;1.50;;;;;;;;;;5094394;28;20032;-75
2022/09/13 11:12:54;;;;;;;3.50;1.40;;;;;;;;;;5094051;28;20032;-75
2022/09/13 11:16:15;;;;;;;5.20;2.17;;;;;;;;;;5093176;28;20052;-74
2022/09/13 11:19:38;;;;;;;3.63;1.40;;;;;;;;;;5094021;28;20028;-75
2022/09/13 11:23:01;;;;;;;7.97;1.95;;;;;;;;;;5094044;28;20040;-75
2022/09/13 11:26:24;;;;;;;3.40;1.73;;;;;;;;;;5094069;28;20475;-75
2022/09/13 11:29:47;;;;;;;4.88;1.58;;;;;;;;;;5094354;28;20297;-74
2022/09/13 11:33:02;;;;;;;7.55;2.20;;;;;;;;;;5094212;28;20052;-74
2022/09/13 11:36:25;;;;;;;8.57;2.10;;;;;;;;;;5092971;28;20040;-74
2022/09/13 11:39:37;;;;;;;3.50;1.95;;;;;;;;;;5093955;28;20492;-75
2022/09/13 11:42:42;;;;;;;4.20;1.58;;;;;;;;;;5093539;28;20036;-75
2022/09/13 11:45:49;;;;;;;2.65;1.60;;;;;;;;;;5093031;28;20496;-74
2022/09/13 11:48:59;;;;;;;4.72;1.83;;;;;;;;;;5093924;28;20036;-74
2022/09/13 11:52:21;;;;;;;3.58;1.63;;;;;;;;;;5093542;28;20380;-74
2022/09/13 11:55:33;;;;;;;9.77;2.22;;;;;;;;;;5093262;28;20329;-75
2022/09/13 11:58:55;;;;;;;7.88;2.47;;;;;;;;;;5093659;28;20040;-74
2022/09/13 12:02:02;;;;;;;4.10;2.10;;;;;;;;;;5093285;28;20036;-74
2022/09/13 12:05:10;;;;;;;4.05;2.00;;;;;;;;;;5093226;28;20040;-74
2022/09/13 12:08:17;;;;;;;5.55;2.53;;;;;;;;;;5093354;28;20487;-74
2022/09/13 12:11:23;;;;;;;4.25;2.10;;;;;;;;;;5092917;28;20391;-74
2022/09/13 12:14:30;;;;;;;10.20;3.00;;;;;;;;;;5092855;28;20032;-74
2022/09/13 12:17:39;;;;;;;12.38;4.00;;;;;;;;;;5092889;28;20036;-72
2022/09/13 12:20:48;;;;;;;5.72;2.70;;;;;;;;;;5092052;28;20039;-73
2022/09/13 12:23:53;;;;;;;12.90;2.80;;;;;;;;;;5092066;28;20036;-73
2022/09/13 12:27:07;;;;;;;6.72;2.50;;;;;;;;;;5091321;28;20051;-72
2022/09/13 12:30:22;;;;;;;8.55;2.80;;;;;;;;;;5090910;28;20040;-73
2022/09/13 12:33:27;;;;;;;12.73;3.20;;;;;;;;;;5090757;28;20044;-73
2022/09/13 12:36:35;;;;;;;6.25;2.88;;;;;;;;;;5090027;28;20055;-72
2022/09/13 12:39:40;;;;;;;8.27;2.95;;;;;;;;;;5090740;28;20376;-72
2022/09/13 12:43:03;;;;;;;8.50;6.20;;;;;;;;;;5091914;28;20036;-72
2022/09/13 12:46:23;;;;;;;6.38;2.70;;;;;;;;;;5092797;28;20040;-72
2022/09/13 12:49:35;;;;;;;12.15;2.75;;;;;;;;;;5091506;28;20476;-72
2022/09/13 12:52:44;;;;;;;8.82;2.85;;;;;;;;;;5092694;28;20040;-72
2022/09/13 12:55:48;;;;;;;8.52;2.25;;;;;;;;;;5090265;28;20039;-72
2022/09/13 12:59:02;;;;;;;14.60;2.58;;;;;;;;;;5091716;28;20059;-71
2022/09/13 13:02:39;;;;;;;15.95;3.22;;;;;;;;;;5092170;28;20475;-71
2022/09/13 13:05:51;;;;;;;4.88;2.53;;;;;;;;;;5091437;28;20047;-71
2022/09/13 13:08:58;;;;;;;8.20;2.15;;;;;;;;;;5091259;28;20480;-69
2022/09/13 13:12:03;;;;;;;7.18;2.28;;;;;;;;;;5092062;28;20040;-71
2022/09/13 13:15:27;;;;;;;5.93;2.90;;;;;;;;;;5091813;28;20044;-71
2022/09/13 13:18:43;;;;;;;6.32;2.45;;;;;;;;;;5091576;28;20044;-71
2022/09/13 13:21:48;;;;;;;11.63;2.88;;;;;;;;;;5092089;28;20104;-72
2022/09/13 13:24:54;;;;;;;10.20;2.40;;;;;;;;;;5091969;28;20035;-71
2022/09/13 13:27:59;;;;;;;11.25;2.55;;;;;;;;;;5091793;28;20052;-71
2022/09/13 13:31:03;;;;;;;9.00;2.08;;;;;;;;;;5092013;28;20040;-73
2022/09/13 13:34:14;;;;;;;10.60;2.33;;;;;;;;;;5091908;28;20047;-76
2022/09/13 13:37:18;;;;;;;10.95;2.50;;;;;;;;;;5091388;28;20043;-73
2022/09/13 13:40:24;;;;;;;8.75;2.17;;;;;;;;;;5090749;28;20411;-72
2022/09/13 13:43:30;;;;;;;4.80;2.05;;;;;;;;;;5091748;28;20044;-71
2022/09/13 13:46:35;;;;;;;13.13;2.08;;;;;;;;;;5090710;28;20036;-72
2022/09/13 13:49:39;;;;;;;16.88;2.20;;;;;;;;;;5090614;28;20052;-72
2022/09/13 13:52:47;;;;;;;11.68;2.30;;;;;;;;;;5091180;28;20035;-70
2022/09/13 13:56:06;;;;;;;8.30;2.17;;;;;;;;;;5090822;28;20403;-72
2022/09/13 13:59:10;;;;;;;7.47;2.10;;;;;;;;;;5091063;28;20036;-72
2022/09/13 14:02:18;;;;;;;6.82;2.08;;;;;;;;;;5090053;28;20024;-71
2022/09/13 14:05:32;;;;;;;7.30;2.47;;;;;;;;;;5091024;28;20044;-71
2022/09/13 14:08:36;;;;;;;7.07;2.20;;;;;;;;;;5090971;28;20044;-71
2022/09/13 14:11:45;;;;;;;8.40;1.88;;;;;;;;;;5090826;28;20032;-66
2022/09/13 14:14:52;;;;;;;13.35;2.25;;;;;;;;;;5090838;28;20036;-66
2022/09/13 14:18:00;;;;;;;3.72;1.88;;;;;;;;;;5091001;28;20052;-67
2022/09/13 14:21:17;;;;;;;15.25;2.60;;;;;;;;;;5091007;28;20040;-75
2022/09/13 14:24:23;;;;;;;10.80;2.55;;;;;;;;;;5090706;28;20047;-72
2022/09/13 14:27:30;;;;;;;10.90;2.00;;;;;;;;;;5090582;28;20048;-74
2022/09/13 14:30:36;;;;;;;9.05;1.90;;;;;;;;;;5094268;28;20490;-72
2022/09/13 14:33:40;;;;;;;7.18;1.70;;;;;;;;;;5094646;28;20123;-72
2022/09/13 14:36:51;;;;;;;5.63;1.67;;;;;;;;;;5094229;28;20377;-75
2022/09/13 14:39:55;;;;;;;4.63;1.90;;;;;;;;;;5095017;28;20040;-73
2022/09/13 14:42:59;;;;;;;6.90;1.75;;;;;;;;;;5095012;28;20036;-73
2022/09/13 14:46:07;;;;;;;5.53;2.10;;;;;;;;;;5095199;28;20470;-73
2022/09/13 14:49:20;;;;;;;3.25;1.48;;;;;;;;;;5094563;28;20032;-73
2022/09/13 14:52:29;;;;;;;6.40;1.42;;;;;;;;;;5094602;28;20036;-73
2022/09/13 14:55:39;;;;;;;8.05;1.30;;;;;;;;;;5094979;28;20032;-74
2022/09/13 14:58:48;;;;;;;5.67;1.57;;;;;;;;;;5094636;28;20044;-74
2022/09/13 15:01:52;;;;;;;11.88;2.10;;;;;;;;;;5094409;28;20282;-73
2022/09/13 15:04:58;;;;;;;3.00;1.40;;;;;;;;;;5094387;28;20044;-74
2022/09/13 15:08:21;;;;;;;4.38;1.23;;;;;;;;;;5094736;28;20056;-72
2022/09/13 15:11:30;;;;;;;9.93;1.67;;;;;;;;;;5094319;28;20044;-75
2022/09/13 15:14:36;;;;;;;2.85;1.38;;;;;;;;;;5094451;28;20483;-77
2022/09/13 15:17:51;;;;;;;3.45;1.30;;;;;;;;;;5094036;28;20048;-78
2022/09/13 15:21:03;;;;;;;4.60;1.50;;;;;;;;;;5093654;28;20036;-77
2022/09/13 15:24:14;;;;;;;4.68;1.55;;;;;;;;;;5093389;28;20487;-79
2022/09/13 15:27:20;;;;;;;4.07;1.60;;;;;;;;;;5093996;28;20491;-79
2022/09/13 15:30:28;;;;;;;3.10;1.40;;;;;;;;;;5094180;28;20040;-78
2022/09/13 15:33:34;;;;;;;5.35;1.77;;;;;;;;;;5093180;28;20032;-76
2022/09/13 15:36:38;;;;;;;8.55;2.08;;;;;;;;;;5093949;28;20388;-72
2022/09/13 15:39:43;;;;;;;4.18;1.75;;;;;;;;;;5093295;28;20036;-73
2022/09/13 15:42:51;;;;;;;6.05;1.23;;;;;;;;;;5093498;28;20059;-71
2022/09/13 15:45:56;;;;;;;4.72;1.52;;;;;;;;;;5093932;28;20032;-75
2022/09/13 15:49:05;;;;;;;6.32;1.60;;;;;;;;;;5094259;28;20044;-79
2022/09/13 15:52:10;;;;;;;11.10;1.50;;;;;;;;;;5090727;28;20032;-81
2022/09/13 15:55:17;;;;;;;5.07;1.40;;;;;;;;;;5091610;28;20040;-78
2022/09/13 15:58:22;;;;;;;6.47;1.20;;;;;;;;;;5092588;28;20040;-80
2022/09/13 16:01:26;;;;;;;2.55;1.30;;;;;;;;;;5093452;28;20476;-80
2022/09/13 16:04:30;;;;;;;4.50;1.20;;;;;;;;;;5093144;28;20044;-80
2022/09/13 16:07:35;;;;;;;5.07;1.60;;;;;;;;;;5093046;28;20036;-81
2022/09/13 16:10:39;;;;;;;2.78;1.25;;;;;;;;;;5092328;28;20396;-78
2022/09/13 16:13:43;;;;;;;4.75;1.60;;;;;;;;;;5093265;28;20471;-82
2022/09/13 16:16:47;;;;;;;3.20;1.40;;;;;;;;;;5092191;28;20036;-79
2022/09/13 16:19:52;;;;;;;4.53;1.52;;;;;;;;;;5080966;28;20051;-83
2022/09/13 16:22:56;;;;;;;5.32;1.90;;;;;;;;;;5093101;28;20035;-80
2022/09/13 16:26:01;;;;;;;3.58;1.70;;;;;;;;;;5092143;28;20044;-83
2022/09/13 16:29:05;;;;;;;4.68;1.40;;;;;;;;;;5091961;28;20282;-83
2022/09/13 16:32:10;;;;;;;3.90;1.35;;;;;;;;;;5091985;28;20040;-82
2022/09/13 16:35:15;;;;;;;5.25;1.67;;;;;;;;;;5093182;28;20369;-83
2022/09/13 16:38:20;;;;;;;8.68;1.83;;;;;;;;;;5092500;28;20040;-83
2022/09/13 16:41:24;;;;;;;5.85;2.05;;;;;;;;;;5092446;28;20361;-77
2022/09/13 16:44:28;;;;;;;9.32;1.85;;;;;;;;;;5092443;28;20036;-78
2022/09/13 16:47:33;;;;;;;5.10;1.58;;;;;;;;;;5092543;28;20032;-77
2022/09/13 16:50:40;;;;;;;9.95;2.28;;;;;;;;;;5092647;28;20036;-78
2022/09/13 16:53:45;;;;;;;2.35;1.50;;;;;;;;;;5092076;28;20032;-78
2022/09/13 16:56:49;;;;;;;4.35;1.80;;;;;;;;;;5092342;28;20495;-78
2022/09/13 16:59:57;;;;;;;7.60;1.80;;;;;;;;;;5092827;28;20380;-78
2022/09/13 17:03:02;;;;;;;7.80;2.30;;;;;;;;;;5092009;28;20040;-77
2022/09/13 17:06:07;;;;;;;7.60;2.10;;;;;;;;;;5092149;28;20032;-79
2022/09/13 17:09:12;;;;;;;8.40;2.83;;;;;;;;;;5091683;28;20036;-79
2022/09/13 17:12:16;;;;;;;9.45;1.80;;;;;;;;;;5092302;28;20036;-78
2022/09/13 17:15:20;;;;;;;7.15;2.33;;;;;;;;;;5091023;28;20036;-78
2022/09/13 17:18:24;;;;;;;7.30;2.13;;;;;;;;;;5091818;28;20044;-80
2022/09/13 17:21:30;;;;;;;9.70;2.60;;;;;;;;;;5091943;28;20043;-78
2022/09/13 17:24:34;;;;;;;10.20;2.25;;;;;;;;;;5091509;28;20048;-79
2022/09/13 17:27:38;;;;;;;8.32;2.20;;;;;;;;;;5090420;28;20056;-78
2022/09/13 17:30:44;;;;;;;7.65;2.75;;;;;;;;;;5090910;28;20040;-80
2022/09/13 17:33:48;;;;;;;8.68;2.63;;;;;;;;;;5091244;28;20040;-79
2022/09/13 17:36:53;;;;;;;10.57;3.58;;;;;;;;;;5091544;28;20039;-78
2022/09/13 17:39:58;;;;;;;9.95;3.47;;;;;;;;;;5091742;28;20052;-78
2022/09/13 17:43:02;;;;;;;7.65;3.47;;;;;;;;;;5091362;28;20032;-79
2022/09/13 17:46:08;;;;;;;10.55;3.35;;;;;;;;;;5091327;28;20044;-78
2022/09/13 17:49:12;;;;;;;10.27;3.47;;;;;;;;;;5091437;28;20028;-78
2022/09/13 17:52:16;;;;;;;6.18;2.78;;;;;;;;;;5090355;28;20032;-78
2022/09/13 17:55:20;;;;;;;6.55;2.70;;;;;;;;;;5091046;28;20400;-78
2022/09/13 17:58:28;;;;;;;7.32;2.63;;;;;;;;;;5090718;28;20044;-78
2022/09/13 18:01:32;;;;;;;6.68;2.75;;;;;;;;;;5091017;28;20029;-76
2022/09/13 18:04:36;;;;;;;12.30;2.50;;;;;;;;;;5090808;28;20040;-78
2022/09/13 18:07:41;;;;;;;8.43;2.47;;;;;;;;;;5090618;28;20040;-77
2022/09/13 18:10:45;;;;;;;12.13;3.15;;;;;;;;;;5090495;28;20032;-77
2022/09/13 18:13:50;;;;;;;7.13;2.63;;;;;;;;;;5090162;28;20028;-78
2022/09/13 18:16:56;;;;;;;8.93;2.15;;;;;;;;;;5090513;28;20036;-77
2022/09/13 18:20:01;;;;;;;9.95;2.65;;;;;;;;;;5090724;28;20044;-77
2022/09/13 18:23:05;;;;;;;8.07;2.17;;;;;;;;;;5090821;28;20483;-77
2022/09/13 18:26:13;;;;;;;8.38;2.38;;;;;;;;;;5088499;28;20048;-77
2022/09/13 18:29:17;;;;;;;6.43;2.30;;;;;;;;;;5090197;28;20048;-77
2022/09/13 18:32:22;;;;;;;5.10;2.75;;;;;;;;;;5090746;28;20036;-78
2022/09/13 18:35:26;;;;;;;12.68;2.47;;;;;;;;;;5090048;28;20032;-77
2022/09/13 18:38:32;;;;;;;13.85;2.42;;;;;;;;;;5090676;28;20106;-77
2022/09/13 18:41:41;;;;;;;7.60;2.20;;;;;;;;;;5089882;28;20044;-77